Time;durP1;ratioP1;P1;durP2;ratioP2;P2;SDS_P1;SDS_P2;PMS_P1;PMS_P2;Temp;Humidity;BMP_temperature;BMP_pressure;BME280_temperature;BME280_humidity;BME280_pressure;Samples;Min_cycle;Max_cycle;Signal;HPM_P1;HPM_P2
2023/02/13 00:02:16;;;;;;;6.97;5.55;;;5.90;99.90;;;;;;5103529;28;20107;-76
2023/02/13 00:04:42;;;;;;;9.95;6.10;;;5.80;99.90;;;;;;5098766;28;20118;-77
2023/02/13 00:07:10;;;;;;;6.63;5.97;;;5.80;99.90;;;;;;5104296;28;20107;-77
2023/02/13 00:09:36;;;;;;;8.73;5.88;;;5.80;99.90;;;;;;5104159;28;20044;-76
2023/02/13 00:12:03;;;;;;;7.10;5.13;;;5.80;99.90;;;;;;5088569;28;20023;-77
2023/02/13 00:14:29;;;;;;;6.18;5.53;;;5.80;99.90;;;;;;5102444;28;20117;-76
2023/02/13 00:16:55;;;;;;;6.13;5.50;;;5.80;99.90;;;;;;5088662;28;20482;-76
2023/02/13 00:19:21;;;;;;;7.03;5.53;;;5.80;99.90;;;;;;5104212;28;20035;-77
2023/02/13 00:21:46;;;;;;;6.82;5.80;;;5.80;99.90;;;;;;5087961;28;20422;-76
2023/02/13 00:24:12;;;;;;;7.90;5.88;;;5.80;99.90;;;;;;5103448;28;20394;-77
2023/02/13 00:26:38;;;;;;;7.07;5.85;;;5.80;99.90;;;;;;5103638;28;20035;-77
2023/02/13 00:29:04;;;;;;;8.57;6.78;;;5.80;99.90;;;;;;5088345;28;20544;-77
2023/02/13 00:31:30;;;;;;;7.80;5.68;;;5.70;99.90;;;;;;5103277;28;20027;-77
2023/02/13 00:33:56;;;;;;;10.55;6.80;;;5.70;99.90;;;;;;5085161;28;20054;-76
2023/02/13 00:36:23;;;;;;;9.43;6.55;;;5.80;99.90;;;;;;5106171;28;20027;-77
2023/02/13 00:38:49;;;;;;;10.32;6.95;;;5.70;99.90;;;;;;5104482;28;20054;-77
2023/02/13 00:41:17;;;;;;;8.07;6.22;;;5.70;99.90;;;;;;5085599;28;20425;-77
2023/02/13 00:43:44;;;;;;;9.55;7.25;;;5.70;99.90;;;;;;5106089;28;20031;-77
2023/02/13 00:46:10;;;;;;;10.85;7.15;;;5.70;99.90;;;;;;5102575;28;20559;-77
2023/02/13 00:48:36;;;;;;;9.05;6.80;;;5.70;99.90;;;;;;5086485;28;20114;-77
2023/02/13 00:51:03;;;;;;;11.68;7.53;;;5.70;99.90;;;;;;5105291;28;20028;-76
2023/02/13 00:53:29;;;;;;;11.57;7.13;;;5.70;99.90;;;;;;5085017;28;20024;-77
2023/02/13 00:55:55;;;;;;;7.82;6.60;;;5.70;99.90;;;;;;5087923;28;20024;-76
2023/02/13 00:58:22;;;;;;;7.85;6.15;;;5.70;99.90;;;;;;5099323;28;20176;-77
2023/02/13 01:00:48;;;;;;;9.07;6.65;;;5.70;99.90;;;;;;5101694;28;20036;-77
2023/02/13 01:03:15;;;;;;;10.15;6.72;;;5.70;99.90;;;;;;5087740;28;20032;-77
2023/02/13 01:05:41;;;;;;;7.35;6.20;;;5.70;99.90;;;;;;5099040;28;20517;-77
2023/02/13 01:08:07;;;;;;;8.57;6.35;;;5.70;99.90;;;;;;5106563;28;20422;-77
2023/02/13 01:10:33;;;;;;;8.60;6.85;;;5.60;99.90;;;;;;5084886;28;20052;-77
2023/02/13 01:12:59;;;;;;;7.57;6.38;;;5.60;99.90;;;;;;5103036;28;20130;-77
2023/02/13 01:15:24;;;;;;;8.23;6.05;;;5.60;99.90;;;;;;5087450;28;20024;-76
2023/02/13 01:17:53;;;;;;;8.13;6.50;;;5.60;99.90;;;;;;5102969;28;20024;-77
2023/02/13 01:20:19;;;;;;;8.70;6.70;;;5.60;99.90;;;;;;5103558;28;20510;-77
2023/02/13 01:22:45;;;;;;;9.35;6.18;;;5.60;99.90;;;;;;5105418;28;20470;-76
2023/02/13 01:25:11;;;;;;;8.43;6.18;;;5.60;99.90;;;;;;5084054;28;20020;-77
2023/02/13 01:27:39;;;;;;;6.78;5.97;;;5.70;99.90;;;;;;5083983;28;20081;-77
2023/02/13 01:30:10;;;;;;;7.57;6.38;;;5.60;99.90;;;;;;5103692;28;20518;-77
2023/02/13 01:32:36;;;;;;;9.80;6.25;;;5.60;99.90;;;;;;5087274;28;20428;-76
2023/02/13 01:35:03;;;;;;;8.77;6.80;;;5.60;99.90;;;;;;5102790;28;20069;-76
2023/02/13 01:37:28;;;;;;;9.75;6.68;;;5.60;99.90;;;;;;5088075;28;20023;-77
2023/02/13 01:39:55;;;;;;;7.97;6.28;;;5.60;99.90;;;;;;5103022;28;20023;-77
2023/02/13 01:42:31;;;;;;;6.78;6.05;;;5.50;99.90;;;;;;5105291;28;20383;-77
2023/02/13 01:45:00;;;;;;;9.30;6.40;;;5.50;99.90;;;;;;5067708;28;20475;-77
2023/02/13 01:47:44;;;;;;;7.82;6.35;;;5.60;99.90;;;;;;5087480;28;20060;-77
2023/02/13 01:50:36;;;;;;;8.52;6.60;;;5.50;99.90;;;;;;5102769;28;20024;-76
2023/02/13 01:53:09;;;;;;;7.10;6.18;;;5.50;99.90;;;;;;5049175;28;20036;-76
2023/02/13 01:55:45;;;;;;;10.43;6.10;;;5.50;99.90;;;;;;5099581;28;20447;-76
2023/02/13 01:58:17;;;;;;;8.60;6.63;;;5.50;99.90;;;;;;5101837;28;20497;-76
2023/02/13 02:00:48;;;;;;;9.43;6.75;;;5.50;99.90;;;;;;5085425;28;20024;-77
2023/02/13 02:03:38;;;;;;;7.87;6.60;;;5.50;99.90;;;;;;5104336;28;20080;-77
2023/02/13 02:06:10;;;;;;;7.53;6.20;;;5.40;99.90;;;;;;5103747;28;20245;-77
2023/02/13 02:08:36;;;;;;;13.20;7.10;;;5.50;99.90;;;;;;5099162;28;20019;-76
2023/02/13 02:11:10;;;;;;;7.90;6.40;;;5.40;99.90;;;;;;5101424;28;20044;-77
2023/02/13 02:13:36;;;;;;;8.13;6.72;;;5.40;99.90;;;;;;5083002;28;20032;-77
2023/02/13 02:16:02;;;;;;;8.77;6.60;;;5.40;99.90;;;;;;5085197;28;20178;-76
2023/02/13 02:18:28;;;;;;;10.32;7.50;;;5.40;99.90;;;;;;5084758;28;20372;-77
2023/02/13 02:21:09;;;;;;;10.73;7.03;;;5.40;99.90;;;;;;5083870;28;20031;-77
2023/02/13 02:24:12;;;;;;;9.38;6.68;;;5.40;99.90;;;;;;5100412;28;20472;-77
2023/02/13 02:27:03;;;;;;;9.93;7.05;;;5.40;99.90;;;;;;5120853;27;20110;-76
2023/02/13 02:29:31;;;;;;;8.85;6.88;;;5.40;99.90;;;;;;5063582;28;20029;-76
2023/02/13 02:32:09;;;;;;;7.75;6.63;;;5.40;99.90;;;;;;5084189;28;20051;-77
2023/02/13 02:35:06;;;;;;;8.30;6.70;;;5.40;99.90;;;;;;5097302;28;20066;-76
2023/02/13 02:37:57;;;;;;;9.38;6.43;;;5.30;99.90;;;;;;5066322;28;20055;-77
2023/02/13 02:40:32;;;;;;;8.73;7.07;;;5.30;99.90;;;;;;5097902;28;20509;-77
2023/02/13 02:43:39;;;;;;;9.60;6.72;;;5.30;99.90;;;;;;5097167;28;20028;-77
2023/02/13 02:49:57;;;;;;;9.32;6.80;;;5.30;99.90;;;;;;5061391;28;20032;-77
2023/02/13 02:52:41;;;;;;;9.15;6.85;;;5.30;99.90;;;;;;5093395;28;20034;-77
2023/02/13 02:55:37;;;;;;;10.40;6.88;;;5.30;99.90;;;;;;5077666;28;20089;-76
2023/02/13 03:06:52;;;;;;;9.27;6.93;;;5.30;99.90;;;;;;5097808;28;20093;-77
2023/02/13 03:15:02;;;;;;;10.05;7.43;;;5.20;99.90;;;;;;5104057;28;20034;-77
2023/02/13 03:23:32;;;;;;;12.13;7.43;;;5.30;99.90;;;;;;5101732;28;20405;-77
2023/02/13 03:26:03;;;;;;;9.63;7.28;;;5.20;99.90;;;;;;5099575;28;20267;-76
2023/02/13 03:31:34;;;;;;;9.57;7.05;;;5.20;99.90;;;;;;5100194;28;20042;-77
2023/02/13 03:34:12;;;;;;;10.00;6.72;;;5.30;99.90;;;;;;5101879;28;20066;-76
2023/02/13 03:39:40;;;;;;;9.25;7.00;;;5.20;99.90;;;;;;5096872;28;20042;-77
2023/02/13 03:42:15;;;;;;;7.82;7.03;;;5.20;99.90;;;;;;5096797;28;20020;-77
2023/02/13 03:47:48;;;;;;;9.02;7.88;;;5.20;99.90;;;;;;5097881;28;20525;-77
2023/02/13 03:50:14;;;;;;;9.90;7.50;;;5.10;99.90;;;;;;5100451;28;20037;-77
2023/02/13 03:52:42;;;;;;;8.82;7.20;;;5.20;99.90;;;;;;5099975;28;20490;-76
2023/02/13 04:00:58;;;;;;;9.02;7.05;;;5.10;99.90;;;;;;5096727;28;20422;-76
2023/02/13 04:03:48;;;;;;;9.38;6.97;;;5.10;99.90;;;;;;5102950;28;20028;-76
2023/02/13 04:06:26;;;;;;;8.25;6.25;;;5.10;99.90;;;;;;5103119;28;20046;-76
2023/02/13 04:08:52;;;;;;;9.65;7.22;;;5.10;99.90;;;;;;5084002;28;20024;-77
2023/02/13 04:11:26;;;;;;;7.93;6.60;;;5.10;99.90;;;;;;5081513;28;20052;-76
2023/02/13 04:13:56;;;;;;;8.75;6.82;;;5.00;99.90;;;;;;5098160;28;20020;-76
2023/02/13 04:16:43;;;;;;;9.73;6.93;;;5.00;99.90;;;;;;5099609;28;20526;-77
2023/02/13 04:19:10;;;;;;;9.73;6.82;;;5.00;99.90;;;;;;5101338;28;20043;-76
2023/02/13 04:21:39;;;;;;;9.15;7.10;;;5.00;99.90;;;;;;5103509;28;20084;-77
2023/02/13 04:24:05;;;;;;;7.75;6.22;;;5.00;99.90;;;;;;5089547;28;20020;-77
2023/02/13 04:26:36;;;;;;;10.85;6.63;;;5.10;99.90;;;;;;5086318;28;20118;-77
2023/02/13 04:29:02;;;;;;;11.43;6.30;;;5.00;99.90;;;;;;5105021;28;20074;-77
2023/02/13 04:31:28;;;;;;;8.00;6.07;;;5.00;99.90;;;;;;5104908;28;20117;-77
2023/02/13 04:33:54;;;;;;;8.25;5.95;;;5.00;99.90;;;;;;5105075;28;20024;-77
2023/02/13 04:36:19;;;;;;;9.27;6.57;;;5.00;99.90;;;;;;5104405;28;20126;-77
2023/02/13 04:38:45;;;;;;;7.80;6.63;;;5.00;99.90;;;;;;5106533;28;20027;-77
2023/02/13 04:41:11;;;;;;;9.43;6.53;;;5.00;99.90;;;;;;5103463;28;20606;-77
2023/02/13 04:43:37;;;;;;;7.95;6.03;;;5.00;99.90;;;;;;5105518;28;20023;-77
2023/02/13 04:46:03;;;;;;;8.07;5.88;;;5.00;99.90;;;;;;5086678;28;20023;-77
2023/02/13 04:48:28;;;;;;;8.43;6.25;;;4.90;99.90;;;;;;5103303;28;20024;-76
2023/02/13 04:50:54;;;;;;;7.45;6.10;;;4.90;99.90;;;;;;5084774;28;20032;-77
2023/02/13 04:53:19;;;;;;;8.30;6.22;;;4.90;99.90;;;;;;5105920;28;20088;-77
2023/02/13 04:55:45;;;;;;;7.72;6.05;;;4.90;99.90;;;;;;5084117;28;20652;-77
2023/02/13 04:58:11;;;;;;;9.32;6.32;;;4.90;99.90;;;;;;5104843;28;20436;-77
2023/02/13 05:00:37;;;;;;;9.57;6.60;;;4.90;99.90;;;;;;5084743;28;20023;-77
2023/02/13 05:03:07;;;;;;;8.18;6.93;;;4.90;99.90;;;;;;5085087;28;20020;-77
2023/02/13 05:05:37;;;;;;;10.18;7.35;;;4.90;99.90;;;;;;5104922;28;20026;-77
2023/02/13 05:08:07;;;;;;;8.00;7.00;;;4.90;99.90;;;;;;5105851;28;20051;-77
2023/02/13 05:10:33;;;;;;;8.35;6.80;;;4.80;99.90;;;;;;5065884;28;20074;-77
2023/02/13 05:12:59;;;;;;;8.18;7.13;;;4.80;99.90;;;;;;5086395;28;20136;-77
2023/02/13 05:15:24;;;;;;;10.45;7.22;;;4.80;99.90;;;;;;5086474;28;20443;-77
2023/02/13 05:17:50;;;;;;;9.30;7.07;;;4.80;99.90;;;;;;5084481;28;20483;-77
2023/02/13 05:20:16;;;;;;;9.38;7.30;;;4.80;99.90;;;;;;5087858;28;20051;-77
2023/02/13 05:25:37;;;;;;;8.55;7.03;;;4.80;99.90;;;;;;5102965;28;20077;-77
2023/02/13 05:28:03;;;;;;;8.02;6.53;;;4.70;99.90;;;;;;5107261;28;20429;-77
2023/02/13 05:30:28;;;;;;;9.82;7.00;;;4.70;99.90;;;;;;5102416;28;20090;-77
2023/02/13 05:32:54;;;;;;;11.45;7.20;;;4.70;99.90;;;;;;5103702;28;20044;-77
2023/02/13 05:35:21;;;;;;;8.50;6.60;;;4.70;99.90;;;;;;5104664;28;20053;-77
2023/02/13 05:37:50;;;;;;;7.70;6.20;;;4.80;99.90;;;;;;5105651;28;20016;-77
2023/02/13 05:40:16;;;;;;;9.73;6.82;;;4.80;99.90;;;;;;5105537;28;20066;-77
2023/02/13 05:42:42;;;;;;;8.05;6.28;;;4.80;99.90;;;;;;5103114;28;20069;-77
2023/02/13 05:45:08;;;;;;;9.38;6.53;;;4.80;99.90;;;;;;5104097;28;20028;-77
2023/02/13 05:47:34;;;;;;;11.05;6.85;;;4.80;99.90;;;;;;5101608;28;20024;-77
2023/02/13 05:50:00;;;;;;;8.25;6.80;;;4.80;99.90;;;;;;5087239;28;20394;-77
2023/02/13 05:52:26;;;;;;;9.88;7.32;;;4.70;99.90;;;;;;5102288;28;20107;-78
2023/02/13 05:54:52;;;;;;;12.13;7.30;;;4.80;99.90;;;;;;5104317;28;20482;-77
2023/02/13 05:57:18;;;;;;;8.10;6.35;;;4.70;99.90;;;;;;5101064;28;20120;-77
2023/02/13 05:59:43;;;;;;;10.02;6.57;;;4.70;99.90;;;;;;5082969;28;20245;-77
2023/02/13 06:02:09;;;;;;;10.52;6.05;;;4.70;99.90;;;;;;5086588;28;20028;-77
2023/02/13 06:04:35;;;;;;;10.20;6.95;;;4.70;99.90;;;;;;5083876;28;20024;-77
2023/02/13 06:07:01;;;;;;;9.57;7.32;;;4.70;99.90;;;;;;5104974;28;20375;-77
2023/02/13 06:09:26;;;;;;;8.50;6.93;;;4.70;99.90;;;;;;5083785;28;20119;-77
2023/02/13 06:11:52;;;;;;;8.23;7.20;;;4.70;99.90;;;;;;5102306;28;20027;-77
2023/02/13 06:14:18;;;;;;;12.05;7.30;;;4.70;99.90;;;;;;5084095;28;20445;-77
2023/02/13 06:16:46;;;;;;;11.32;7.22;;;4.70;99.90;;;;;;5105606;28;20035;-77
2023/02/13 06:19:12;;;;;;;10.98;8.13;;;4.70;99.90;;;;;;5102923;28;20106;-77
2023/02/13 06:21:37;;;;;;;12.65;7.90;;;4.70;99.90;;;;;;5101041;28;20548;-77
2023/02/13 06:24:05;;;;;;;9.57;6.85;;;4.70;99.90;;;;;;5083099;28;20059;-77
2023/02/13 06:26:33;;;;;;;10.85;7.60;;;4.70;99.90;;;;;;5085149;28;20062;-77
2023/02/13 06:28:59;;;;;;;11.90;8.15;;;4.60;99.90;;;;;;5083473;28;20524;-77
2023/02/13 06:31:26;;;;;;;13.15;8.07;;;4.70;99.90;;;;;;5100506;28;20035;-77
2023/02/13 06:33:51;;;;;;;11.27;7.82;;;4.70;99.90;;;;;;5101115;28;20039;-77
2023/02/13 06:36:17;;;;;;;13.77;7.63;;;4.70;99.90;;;;;;5084841;28;20118;-77
2023/02/13 06:38:42;;;;;;;8.82;7.55;;;4.70;99.90;;;;;;5082180;28;20027;-77
2023/02/13 06:41:08;;;;;;;12.75;8.40;;;4.70;99.90;;;;;;5100139;28;20146;-77
2023/02/13 06:43:35;;;;;;;13.57;8.23;;;4.70;99.90;;;;;;5085897;28;20092;-77
2023/02/13 06:46:04;;;;;;;9.80;7.90;;;4.70;99.90;;;;;;5103408;28;20069;-77
2023/02/13 06:48:30;;;;;;;12.20;8.45;;;4.70;99.90;;;;;;5103026;28;20058;-77
2023/02/13 06:50:56;;;;;;;10.40;8.25;;;4.70;99.90;;;;;;5083056;28;20039;-77
2023/02/13 06:53:23;;;;;;;13.63;8.73;;;4.70;99.90;;;;;;5085903;28;20032;-77
2023/02/13 06:55:54;;;;;;;10.77;8.52;;;4.70;99.90;;;;;;5076873;28;20032;-77
2023/02/13 06:58:21;;;;;;;12.18;9.25;;;4.70;99.90;;;;;;5103595;28;20020;-77
2023/02/13 07:00:47;;;;;;;14.10;8.80;;;4.70;99.90;;;;;;5075136;28;20023;-77
2023/02/13 07:03:13;;;;;;;11.38;8.52;;;4.80;99.90;;;;;;5075400;28;20077;-77
2023/02/13 07:05:42;;;;;;;11.77;8.40;;;4.80;99.90;;;;;;5093413;28;20020;-77
2023/02/13 07:08:09;;;;;;;12.88;9.68;;;4.80;99.90;;;;;;5093077;28;20027;-77
2023/02/13 07:10:37;;;;;;;17.45;9.55;;;4.80;99.90;;;;;;5093165;28;20055;-77
2023/02/13 07:13:05;;;;;;;17.23;9.48;;;4.80;99.90;;;;;;5055470;28;20048;-77
2023/02/13 07:15:31;;;;;;;15.27;9.38;;;4.80;99.90;;;;;;5076144;28;20024;-77
2023/02/13 07:17:58;;;;;;;17.42;10.15;;;4.90;99.90;;;;;;5113302;28;20073;-77
2023/02/13 07:20:25;;;;;;;14.20;9.02;;;4.90;99.90;;;;;;5113636;28;20031;-77
2023/02/13 07:22:51;;;;;;;14.23;8.38;;;4.90;99.90;;;;;;5085484;28;20082;-77
2023/02/13 07:25:18;;;;;;;12.38;8.98;;;5.00;99.90;;;;;;5111534;28;20494;-77
2023/02/13 07:27:43;;;;;;;12.65;8.82;;;5.00;99.90;;;;;;5106075;28;20036;-77
2023/02/13 07:30:10;;;;;;;13.90;9.15;;;5.10;99.90;;;;;;5093086;28;20035;-78
2023/02/13 07:32:35;;;;;;;15.02;10.25;;;5.10;99.90;;;;;;5092775;28;20048;-78
2023/02/13 07:35:01;;;;;;;16.30;10.98;;;5.10;99.90;;;;;;5074835;28;20031;-78
2023/02/13 07:37:28;;;;;;;21.58;12.15;;;5.10;99.90;;;;;;5092775;28;20024;-77
2023/02/13 07:39:57;;;;;;;19.40;10.98;;;5.10;99.90;;;;;;5092740;28;20047;-77
2023/02/13 07:42:22;;;;;;;20.35;10.35;;;5.00;99.90;;;;;;5092565;28;20029;-77
2023/02/13 07:44:48;;;;;;;17.40;11.10;;;5.10;99.90;;;;;;5091972;28;20368;-77
2023/02/13 07:47:14;;;;;;;21.48;11.98;;;5.10;99.90;;;;;;5074320;28;20115;-77
2023/02/13 07:49:39;;;;;;;39.72;19.35;;;5.10;99.90;;;;;;5092372;28;20028;-77
2023/02/13 07:52:06;;;;;;;42.53;19.77;;;5.10;99.90;;;;;;5092570;28;20466;-77
2023/02/13 07:54:32;;;;;;;32.35;15.82;;;5.20;99.90;;;;;;5076761;28;20032;-77
2023/02/13 07:56:58;;;;;;;28.88;16.27;;;5.20;99.90;;;;;;5084029;28;20115;-77
2023/02/13 07:59:24;;;;;;;25.70;14.27;;;5.20;99.90;;;;;;5118792;27;20410;-77
2023/02/13 08:01:49;;;;;;;22.98;14.43;;;5.20;99.90;;;;;;5085069;28;20027;-78
2023/02/13 08:04:15;;;;;;;18.63;12.82;;;5.20;99.90;;;;;;5113832;28;20051;-78
2023/02/13 08:06:41;;;;;;;22.52;12.80;;;5.20;99.90;;;;;;5113849;28;20023;-77
2023/02/13 08:12:05;;;;;;;20.52;12.52;;;5.30;99.90;;;;;;5076184;28;20090;-78
2023/02/13 08:14:31;;;;;;;18.15;12.13;;;5.30;99.90;;;;;;5085392;28;20100;-79
2023/02/13 08:16:58;;;;;;;18.48;12.40;;;5.40;99.90;;;;;;5105482;28;20031;-79
2023/02/13 08:19:23;;;;;;;19.00;12.50;;;5.40;99.90;;;;;;5103537;28;20066;-79
2023/02/13 08:21:49;;;;;;;21.65;12.75;;;5.40;99.90;;;;;;5085483;28;20028;-79
2023/02/13 08:24:15;;;;;;;27.05;14.27;;;5.50;99.90;;;;;;5105906;28;20538;-79
2023/02/13 08:26:40;;;;;;;26.15;12.75;;;5.50;99.90;;;;;;5087040;28;20024;-79
2023/02/13 08:29:07;;;;;;;21.55;12.82;;;5.60;99.90;;;;;;5103319;28;20020;-79
2023/02/13 08:31:32;;;;;;;21.35;12.65;;;5.60;99.90;;;;;;5081911;28;20123;-79
2023/02/13 08:33:58;;;;;;;23.95;14.07;;;5.70;99.90;;;;;;5103925;28;20125;-79
2023/02/13 08:36:24;;;;;;;20.13;12.70;;;5.70;99.90;;;;;;5086825;28;20039;-79
2023/02/13 08:38:50;;;;;;;23.40;13.02;;;5.80;99.90;;;;;;5087142;28;20031;-79
2023/02/13 08:41:17;;;;;;;23.45;13.23;;;5.80;99.90;;;;;;5103090;28;20036;-79
2023/02/13 08:43:43;;;;;;;18.00;11.82;;;5.80;99.90;;;;;;5099829;28;20559;-80
2023/02/13 08:46:09;;;;;;;27.02;14.05;;;5.90;99.90;;;;;;5105050;28;20051;-79
2023/02/13 08:48:35;;;;;;;23.88;13.68;;;6.00;99.90;;;;;;5105012;28;20487;-79
2023/02/13 08:51:05;;;;;;;21.77;13.73;;;6.10;99.90;;;;;;5103009;28;20498;-79
2023/02/13 08:53:32;;;;;;;20.67;11.95;;;6.10;99.90;;;;;;5099985;28;20032;-79
2023/02/13 08:55:58;;;;;;;18.77;11.65;;;6.20;99.90;;;;;;5104524;28;20028;-79
2023/02/13 08:58:24;;;;;;;24.00;12.57;;;6.20;99.90;;;;;;5102044;28;20050;-80
2023/02/13 09:00:50;;;;;;;25.33;13.25;;;6.40;99.90;;;;;;5102197;28;20249;-79
2023/02/13 09:03:19;;;;;;;20.63;13.10;;;6.50;99.90;;;;;;5105769;28;20423;-79
2023/02/13 09:05:46;;;;;;;18.58;12.75;;;6.60;99.90;;;;;;5103429;28;20021;-80
2023/02/13 09:08:12;;;;;;;22.90;12.52;;;6.60;99.90;;;;;;5103169;28;20016;-79
2023/02/13 09:10:39;;;;;;;24.45;13.02;;;6.70;99.90;;;;;;5106063;28;20054;-79
2023/02/13 09:13:05;;;;;;;25.08;13.43;;;6.70;99.90;;;;;;5105059;28;20063;-80
2023/02/13 09:15:32;;;;;;;21.85;13.80;;;6.80;99.90;;;;;;5103900;28;20043;-79
2023/02/13 09:17:58;;;;;;;24.15;13.18;;;6.80;99.90;;;;;;5084483;28;20016;-79
2023/02/13 09:20:24;;;;;;;20.90;13.93;;;6.90;99.90;;;;;;5105447;28;20386;-79
2023/02/13 09:22:50;;;;;;;30.33;17.33;;;6.90;99.90;;;;;;5102594;28;20028;-79
2023/02/13 09:25:15;;;;;;;33.85;17.85;;;7.00;99.90;;;;;;5104475;28;20020;-79
2023/02/13 09:27:41;;;;;;;25.63;14.52;;;7.10;99.90;;;;;;5104015;28;20024;-79
2023/02/13 09:30:08;;;;;;;25.08;13.73;;;7.10;99.90;;;;;;5103107;28;20571;-79
2023/02/13 09:32:36;;;;;;;24.05;14.05;;;7.30;99.90;;;;;;5080131;28;20065;-80
2023/02/13 09:35:02;;;;;;;24.55;13.98;;;7.30;99.90;;;;;;5104134;28;20106;-79
2023/02/13 09:37:28;;;;;;;26.10;14.50;;;7.30;99.90;;;;;;5104048;28;20024;-79
2023/02/13 09:39:54;;;;;;;26.02;15.65;;;7.30;99.90;;;;;;5117779;27;20028;-79
2023/02/13 09:42:25;;;;;;;26.45;15.32;;;7.40;99.90;;;;;;5101899;28;20028;-80
2023/02/13 09:44:54;;;;;;;21.60;15.07;;;7.50;99.90;;;;;;5103708;28;20034;-79
2023/02/13 09:47:33;;;;;;;27.10;16.25;;;7.60;99.90;;;;;;5104707;28;20177;-79
2023/02/13 09:50:09;;;;;;;24.33;15.80;;;7.70;99.90;;;;;;5067286;28;20107;-79
2023/02/13 09:52:37;;;;;;;24.13;15.52;;;7.70;99.90;;;;;;5098016;28;20103;-79
2023/02/13 09:55:17;;;;;;;23.38;13.95;;;7.80;99.90;;;;;;5103828;28;20115;-80
2023/02/13 09:57:54;;;;;;;20.70;13.85;;;7.90;99.90;;;;;;5080569;28;20081;-80
2023/02/13 10:00:36;;;;;;;22.10;13.13;;;8.00;99.90;;;;;;5103509;28;20034;-79
2023/02/13 10:03:20;;;;;;;21.73;13.07;;;8.20;99.90;;;;;;5082670;28;20024;-79
2023/02/13 10:05:46;;;;;;;11.32;7.93;;;8.40;99.90;;;;;;5100271;28;20313;-80
2023/02/13 10:08:20;;;;;;;8.95;7.07;;;8.50;99.90;;;;;;5102708;28;20125;-79
2023/02/13 10:10:59;;;;;;;10.60;7.40;;;8.60;99.90;;;;;;5097765;28;20298;-79
2023/02/13 10:13:24;;;;;;;10.55;7.15;;;8.70;99.90;;;;;;5083507;28;20115;-79
2023/02/13 10:16:04;;;;;;;15.23;8.82;;;8.90;99.90;;;;;;5086116;28;20320;-79
2023/02/13 10:18:56;;;;;;;15.25;9.25;;;8.90;99.90;;;;;;5084728;28;20111;-79
2023/02/13 10:21:27;;;;;;;11.63;8.02;;;9.00;99.90;;;;;;5076772;28;20036;-79
2023/02/13 10:24:10;;;;;;;10.25;7.40;;;9.10;99.90;;;;;;5085259;28;20032;-79
2023/02/13 10:26:42;;;;;;;10.65;8.18;;;9.20;99.90;;;;;;5097869;28;20031;-79
2023/02/13 10:30:19;;;;;;;9.73;7.00;;;9.30;99.90;;;;;;5101762;28;20502;-79
2023/02/13 10:32:46;;;;;;;10.27;8.02;;;9.30;99.90;;;;;;5094843;28;20089;-79
2023/02/13 10:35:29;;;;;;;9.55;7.28;;;9.40;99.90;;;;;;5101421;28;20016;-79
2023/02/13 10:37:56;;;;;;;10.20;8.02;;;9.40;99.90;;;;;;5099976;28;20023;-79
2023/02/13 10:40:37;;;;;;;13.75;7.88;;;9.40;99.90;;;;;;5101457;28;20024;-79
2023/02/13 10:43:15;;;;;;;12.38;8.20;;;9.40;99.90;;;;;;5100517;28;20035;-79
2023/02/13 10:45:53;;;;;;;13.18;9.60;;;9.50;99.90;;;;;;5097760;28;20020;-78
2023/02/13 10:48:31;;;;;;;12.30;8.95;;;9.50;99.90;;;;;;5101063;28;20346;-79
2023/02/13 10:51:12;;;;;;;11.15;8.50;;;9.70;99.90;;;;;;5081867;28;20028;-79
2023/02/13 10:53:41;;;;;;;12.10;8.57;;;9.80;99.90;;;;;;5064474;28;20025;-79
2023/02/13 10:56:25;;;;;;;12.05;8.90;;;9.80;99.90;;;;;;5086467;28;20032;-79
2023/02/13 10:59:10;;;;;;;16.92;9.10;;;9.80;99.90;;;;;;5098682;28;20023;-78
2023/02/13 11:01:45;;;;;;;16.05;10.40;;;9.90;99.90;;;;;;5100373;28;20036;-79
2023/02/13 11:04:14;;;;;;;16.55;8.50;;;9.90;99.90;;;;;;5100731;28;20476;-79
2023/02/13 11:07:00;;;;;;;10.93;8.15;;;9.90;99.90;;;;;;5103082;28;20038;-79
2023/02/13 11:09:28;;;;;;;12.00;8.85;;;10.00;99.90;;;;;;5097386;28;20391;-79
2023/02/13 11:11:54;;;;;;;18.50;10.82;;;10.00;99.90;;;;;;5102284;28;20027;-79
2023/02/13 11:14:25;;;;;;;18.20;11.48;;;10.10;99.90;;;;;;5103731;28;20020;-79
2023/02/13 11:17:06;;;;;;;21.60;12.37;;;10.10;99.90;;;;;;5096687;28;20386;-79
2023/02/13 11:19:38;;;;;;;16.88;11.02;;;10.20;99.90;;;;;;5100573;28;20400;-79
2023/02/13 11:22:10;;;;;;;20.70;12.70;;;10.30;99.90;;;;;;5080189;28;20028;-79
2023/02/13 11:24:39;;;;;;;18.92;12.68;;;10.30;99.90;;;;;;5104529;28;20023;-79
2023/02/13 11:27:08;;;;;;;12.77;10.15;;;10.40;99.90;;;;;;5099702;28;20020;-79
2023/02/13 11:29:49;;;;;;;17.85;9.85;;;10.50;99.90;;;;;;5086217;28;20051;-79
2023/02/13 11:32:24;;;;;;;15.70;9.57;;;10.50;99.90;;;;;;5101511;28;20437;-79
2023/02/13 11:34:50;;;;;;;15.95;8.05;;;10.50;99.90;;;;;;5105083;28;20031;-78
2023/02/13 11:37:26;;;;;;;11.45;7.18;;;10.60;99.90;;;;;;5107708;28;20110;-78
2023/02/13 11:39:54;;;;;;;10.52;7.72;;;10.50;99.90;;;;;;5106157;28;20028;-76
2023/02/13 11:42:33;;;;;;;10.45;7.97;;;10.60;99.90;;;;;;5085907;28;20544;-76
2023/02/13 11:45:27;;;;;;;10.27;7.82;;;10.60;99.90;;;;;;5103719;28;20077;-78
2023/02/13 11:47:54;;;;;;;12.50;7.88;;;10.70;99.90;;;;;;5079635;28;20035;-76
2023/02/13 11:50:23;;;;;;;9.23;7.63;;;10.60;99.90;;;;;;5088791;28;20479;-79
2023/02/13 11:52:56;;;;;;;12.20;7.80;;;10.70;99.90;;;;;;5104923;28;20055;-79
2023/02/13 11:55:32;;;;;;;12.55;7.88;;;10.80;99.90;;;;;;5104039;28;20024;-79
2023/02/13 11:58:24;;;;;;;11.95;8.30;;;10.80;99.90;;;;;;5080513;28;20029;-78
2023/02/13 12:01:27;;;;;;;11.60;8.80;;;10.90;99.90;;;;;;5074145;28;20194;-79
2023/02/13 12:04:03;;;;;;;12.55;8.55;;;10.90;99.90;;;;;;5096628;28;20024;-79
2023/02/13 12:06:30;;;;;;;12.45;8.77;;;10.90;99.90;;;;;;5086279;28;20028;-79
2023/02/13 12:08:56;;;;;;;12.90;8.93;;;10.90;99.90;;;;;;5107042;28;20020;-79
2023/02/13 12:11:33;;;;;;;15.55;8.25;;;11.00;99.90;;;;;;5104179;28;20087;-78
2023/02/13 12:13:59;;;;;;;11.45;8.73;;;11.00;99.90;;;;;;5103917;28;20043;-78
2023/02/13 12:16:42;;;;;;;14.15;9.48;;;11.00;99.90;;;;;;5106763;28;20487;-79
2023/02/13 12:19:23;;;;;;;16.65;10.63;;;11.00;99.90;;;;;;5088503;28;20031;-79
2023/02/13 12:22:03;;;;;;;16.55;10.32;;;10.90;99.90;;;;;;5103050;28;20467;-79
2023/02/13 12:24:59;;;;;;;15.25;11.23;;;11.00;99.90;;;;;;5102001;28;20441;-79
2023/02/13 12:28:03;;;;;;;16.70;10.30;;;11.00;99.90;;;;;;5071947;28;20024;-78
2023/02/13 12:30:56;;;;;;;14.48;9.40;;;11.00;99.90;;;;;;5099700;28;20023;-78
2023/02/13 12:34:03;;;;;;;15.23;9.65;;;11.10;99.90;;;;;;5100250;28;20487;-79
2023/02/13 12:37:01;;;;;;;15.80;11.50;;;11.10;99.90;;;;;;5081562;28;20081;-79
2023/02/13 12:39:41;;;;;;;16.05;11.07;;;11.10;99.90;;;;;;5104564;28;20024;-78
2023/02/13 12:42:19;;;;;;;17.63;11.35;;;11.10;99.90;;;;;;5082346;28;20038;-77
2023/02/13 12:45:04;;;;;;;16.20;11.77;;;11.20;99.90;;;;;;5103219;28;20074;-79
2023/02/13 12:47:51;;;;;;;15.20;10.77;;;11.20;99.90;;;;;;5084897;28;20489;-76
2023/02/13 12:50:17;;;;;;;19.20;13.07;;;11.20;99.90;;;;;;5105309;28;20072;-79
2023/02/13 12:52:46;;;;;;;17.92;11.80;;;11.20;99.90;;;;;;5103117;28;20415;-79
2023/02/13 12:55:27;;;;;;;15.07;11.00;;;11.30;99.90;;;;;;5105292;28;20063;-79
2023/02/13 12:58:24;;;;;;;18.98;12.25;;;11.40;99.90;;;;;;5099877;28;20020;-79
2023/02/13 13:00:49;;;;;;;20.77;12.57;;;11.40;99.90;;;;;;5099915;28;20115;-79
2023/02/13 13:03:36;;;;;;;16.00;12.00;;;11.40;99.90;;;;;;5087019;28;20487;-77
2023/02/13 13:06:44;;;;;;;21.73;12.88;;;11.40;99.90;;;;;;5103592;28;20042;-76
2023/02/13 13:09:19;;;;;;;21.45;13.98;;;11.40;99.90;;;;;;5067597;28;20078;-77
2023/02/13 13:11:56;;;;;;;22.60;13.77;;;11.40;99.90;;;;;;5102861;28;20040;-77
2023/02/13 13:14:37;;;;;;;25.73;15.98;;;11.40;99.90;;;;;;5103942;28;20066;-78
2023/02/13 13:17:21;;;;;;;21.25;12.85;;;11.30;99.90;;;;;;5094269;28;20039;-77
2023/02/13 13:20:02;;;;;;;21.60;13.60;;;11.30;99.90;;;;;;5098643;28;20067;-76
2023/02/13 13:22:37;;;;;;;18.42;12.82;;;11.40;99.90;;;;;;5087705;28;20024;-77
2023/02/13 13:25:26;;;;;;;17.38;13.07;;;11.30;99.90;;;;;;5104121;28;20084;-77
2023/02/13 13:27:58;;;;;;;22.75;14.85;;;11.30;99.90;;;;;;5094895;28;20103;-77
2023/02/13 13:30:30;;;;;;;25.58;14.30;;;11.30;99.90;;;;;;5102284;28;20020;-78
2023/02/13 13:33:01;;;;;;;20.98;12.65;;;11.20;99.90;;;;;;5105833;28;20016;-78
2023/02/13 13:35:28;;;;;;;22.77;13.85;;;11.30;99.90;;;;;;5102338;28;20024;-78
2023/02/13 13:38:20;;;;;;;21.85;14.55;;;11.30;99.90;;;;;;5098764;28;20110;-78
2023/02/13 13:40:58;;;;;;;20.50;13.13;;;11.30;99.90;;;;;;5065778;28;20025;-77
2023/02/13 13:44:11;;;;;;;27.95;14.30;;;11.30;99.90;;;;;;5102061;28;20427;-77
2023/02/13 13:46:37;;;;;;;;;;;11.30;99.90;;;;;;5068528;28;20031;-77
2023/02/13 13:49:11;;;;;;;25.80;15.35;;;11.30;99.90;;;;;;5082849;28;19911;-78
2023/02/13 13:51:37;;;;;;;26.15;15.07;;;11.20;99.90;;;;;;5085437;28;20364;-77
2023/02/13 13:54:05;;;;;;;23.60;14.90;;;11.20;99.90;;;;;;5102251;28;20028;-77